Time;durP1;ratioP1;P1;durP2;ratioP2;P2;SDS_P1;SDS_P2;PMS_P1;PMS_P2;Temp;Humidity;BMP_temperature;BMP_pressure;BME280_temperature;BME280_humidity;BME280_pressure;Samples;Min_cycle;Max_cycle;Signal;HPM_P1;HPM_P2
2022/02/22 00:02:57;;;;;;;5.60;1.75;;;;;;;6.97;68.16;99918.09;10314823;28;20042;-62
2022/02/22 00:27:05;;;;;;;10.45;3.17;;;;;;;6.66;67.00;99963.41;10302106;28;20484;-63
2022/02/22 00:32:07;;;;;;;13.93;3.22;;;;;;;6.50;66.41;99975.97;10315429;28;20058;-64
2022/02/22 00:37:08;;;;;;;7.82;2.08;;;;;;;6.46;66.78;99985.09;10314423;28;20058;-62
2022/02/22 00:42:09;;;;;;;8.80;2.65;;;;;;;6.65;66.39;100001.41;10315661;28;20081;-62
2022/02/22 00:47:11;;;;;;;8.73;2.80;;;;;;;6.80;66.91;100006.59;10315172;28;20501;-62
2022/02/22 00:52:13;;;;;;;8.88;2.20;;;;;;;6.89;67.01;100008.59;10311731;28;20058;-63
2022/02/22 00:57:15;;;;;;;15.23;3.65;;;;;;;6.80;65.69;100009.22;10314622;28;20113;-60
2022/02/22 01:02:16;;;;;;;10.35;2.65;;;;;;;6.49;65.77;99996.31;10312188;28;20053;-60
2022/02/22 01:07:18;;;;;;;9.55;2.10;;;;;;;6.63;65.14;100013.03;10319149;28;20756;-61
2022/02/22 01:12:20;;;;;;;8.13;2.25;;;;;;;6.59;66.08;100025.63;10313343;28;20129;-62
2022/02/22 01:17:21;;;;;;;8.60;2.58;;;;;;;6.55;66.55;100026.78;10318782;28;20093;-60
2022/02/22 01:22:22;;;;;;;10.52;3.17;;;;;;;6.64;66.32;100047.31;10313700;28;20060;-62
2022/02/22 01:27:24;;;;;;;9.30;2.88;;;;;;;6.45;66.17;100057.44;10322214;28;20060;-60
2022/02/22 01:32:26;;;;;;;9.23;2.78;;;;;;;6.37;66.26;100042.09;10313833;28;20125;-61
2022/02/22 01:37:27;;;;;;;10.90;2.88;;;;;;;6.34;66.24;100051.06;10312693;28;20058;-61
2022/02/22 01:42:28;;;;;;;12.35;3.28;;;;;;;6.29;66.87;100055.81;10313912;28;20058;-60
2022/02/22 01:47:30;;;;;;;9.65;2.85;;;;;;;6.06;67.66;100046.72;10312413;28;20154;-61
2022/02/22 01:52:32;;;;;;;10.30;3.33;;;;;;;6.37;66.52;100085.22;10312323;28;20321;-61
2022/02/22 01:57:34;;;;;;;12.32;3.90;;;;;;;6.27;66.55;100097.34;10307612;28;20133;-63
2022/02/22 02:02:36;;;;;;;15.30;3.28;;;;;;;6.11;66.62;100094.84;10312537;28;20128;-61
2022/02/22 02:07:37;;;;;;;10.18;3.08;;;;;;;6.01;66.22;100122.81;10310479;28;20049;-60
2022/02/22 02:12:40;;;;;;;11.48;3.33;;;;;;;5.91;65.80;100138.34;10308715;28;20295;-62
2022/02/22 02:17:41;;;;;;;16.40;3.78;;;;;;;5.90;65.74;100141.09;10313443;28;20534;-61
2022/02/22 02:22:43;;;;;;;16.75;3.33;;;;;;;5.92;66.47;100129.50;10311638;28;20042;-61
2022/02/22 02:27:45;;;;;;;10.18;3.63;;;;;;;5.91;66.14;100133.06;10320346;28;20061;-61
2022/02/22 02:32:46;;;;;;;11.90;3.65;;;;;;;6.03;65.64;100142.06;10316714;28;20689;-61
2022/02/22 02:37:48;;;;;;;12.13;3.45;;;;;;;6.08;64.63;100139.13;10320949;28;20077;-61
2022/02/22 02:43:09;;;;;;;13.63;3.63;;;;;;;6.10;65.31;100143.38;10313151;28;20054;-62
2022/02/22 02:48:11;;;;;;;11.48;4.15;;;;;;;6.11;64.84;100154.78;10320797;28;20060;-61
2022/02/22 02:53:12;;;;;;;10.82;2.97;;;;;;;5.91;64.42;100148.09;10312935;28;20046;-60
2022/02/22 02:58:15;;;;;;;11.05;3.70;;;;;;;5.98;65.19;100181.97;10309906;28;20608;-60
2022/02/22 03:03:16;;;;;;;16.08;4.05;;;;;;;6.06;64.83;100178.84;10316574;28;20046;-61
2022/02/22 03:08:17;;;;;;;18.10;4.07;;;;;;;5.98;65.19;100186.44;10312442;28;20049;-62
2022/02/22 03:13:19;;;;;;;14.30;3.67;;;;;;;6.08;64.96;100181.41;10310060;28;20125;-61
2022/02/22 03:18:20;;;;;;;18.27;3.75;;;;;;;5.91;64.48;100180.63;10311727;28;20420;-61
2022/02/22 03:23:21;;;;;;;12.75;3.38;;;;;;;5.99;64.29;100183.69;10308278;28;20092;-60
2022/02/22 03:28:23;;;;;;;14.82;4.28;;;;;;;5.98;63.76;100200.47;10314209;28;20155;-60
2022/02/22 03:33:24;;;;;;;13.85;3.47;;;;;;;6.17;63.45;100212.53;10310629;28;20100;-60
2022/02/22 03:38:26;;;;;;;15.32;3.85;;;;;;;6.12;63.51;100206.69;10312687;28;20174;-61
2022/02/22 03:43:28;;;;;;;12.93;3.25;;;;;;;6.15;63.49;100214.44;10310514;28;20058;-61
2022/02/22 03:48:29;;;;;;;16.20;4.35;;;;;;;5.95;63.72;100203.28;10312547;28;20859;-61
2022/02/22 03:53:30;;;;;;;12.15;2.95;;;;;;;6.09;64.26;100236.81;10309604;28;20088;-60
2022/02/22 03:58:32;;;;;;;16.52;3.92;;;;;;;6.07;64.40;100243.97;10314688;28;20050;-60
2022/02/22 04:03:33;;;;;;;11.80;3.22;;;;;;;6.07;63.11;100251.06;10311686;28;20467;-60
2022/02/22 04:08:34;;;;;;;11.10;2.85;;;;;;;6.11;63.29;100249.91;10314385;28;20053;-61
2022/02/22 04:13:36;;;;;;;15.50;4.57;;;;;;;5.98;63.50;100276.25;10312104;28;20508;-61
2022/02/22 04:18:37;;;;;;;11.43;3.70;;;;;;;5.96;64.42;100272.81;10311521;28;20050;-61
2022/02/22 04:23:39;;;;;;;10.73;3.90;;;;;;;6.17;64.40;100294.47;10312912;28;20061;-61
2022/02/22 04:28:40;;;;;;;14.20;3.85;;;;;;;6.14;64.37;100284.09;10310745;28;20053;-61
2022/02/22 04:33:41;;;;;;;14.98;3.72;;;;;;;5.99;64.20;100288.50;10311569;28;20409;-61
2022/02/22 04:38:43;;;;;;;17.48;4.43;;;;;;;5.95;65.58;100305.47;10309877;28;20558;-61
2022/02/22 04:43:44;;;;;;;10.70;3.40;;;;;;;5.91;65.32;100307.44;10309553;28;20060;-61
2022/02/22 04:48:46;;;;;;;11.52;3.60;;;;;;;5.96;65.04;100325.66;10311519;28;20107;-61
2022/02/22 04:53:47;;;;;;;13.10;3.25;;;;;;;5.94;65.55;100325.75;10310742;28;20058;-61
2022/02/22 04:58:48;;;;;;;11.50;2.90;;;;;;;5.96;65.80;100342.38;10312592;28;20058;-61
2022/02/22 05:03:50;;;;;;;10.38;3.10;;;;;;;5.84;66.67;100348.41;10306767;28;20744;-62
2022/02/22 05:08:51;;;;;;;9.93;3.38;;;;;;;5.97;66.85;100354.66;10307401;28;20055;-61
2022/02/22 05:13:52;;;;;;;14.73;4.35;;;;;;;6.06;67.09;100363.00;10308242;28;20084;-61
2022/02/22 05:18:56;;;;;;;13.43;3.15;;;;;;;6.16;66.54;100369.44;10310399;28;20144;-61
2022/02/22 05:23:57;;;;;;;15.02;3.92;;;;;;;6.23;66.09;100381.34;10306287;28;20068;-61
2022/02/22 05:28:59;;;;;;;13.52;3.80;;;;;;;6.18;64.92;100372.81;10302677;28;20050;-61
2022/02/22 05:34:00;;;;;;;11.55;3.38;;;;;;;6.14;64.54;100387.16;10312086;28;20062;-63
2022/02/22 05:39:04;;;;;;;14.48;4.65;;;;;;;6.09;64.94;100383.97;10301192;28;20050;-61
2022/02/22 05:44:08;;;;;;;19.00;4.20;;;;;;;6.07;64.61;100376.13;10311528;28;20043;-61
2022/02/22 05:49:09;;;;;;;11.10;3.40;;;;;;;6.28;64.36;100400.41;10296568;28;20045;-62
2022/02/22 05:54:10;;;;;;;13.80;4.43;;;;;;;6.35;64.65;100412.31;10317211;28;20657;-62
2022/02/22 05:59:12;;;;;;;11.77;3.53;;;;;;;6.39;64.28;100406.84;10319159;28;20054;-63
2022/02/22 06:04:13;;;;;;;12.52;3.88;;;;;;;6.40;64.27;100424.44;10314593;28;20508;-61
2022/02/22 06:09:15;;;;;;;13.93;3.70;;;;;;;6.39;64.86;100412.16;10316009;28;20051;-63
2022/02/22 06:14:16;;;;;;;14.27;3.55;;;;;;;6.45;64.77;100440.84;10343500;28;20063;-64
2022/02/22 06:19:17;;;;;;;15.68;4.10;;;;;;;6.36;65.23;100424.63;10344313;28;20059;-63
2022/02/22 06:24:19;;;;;;;15.52;3.72;;;;;;;6.43;64.15;100446.25;10341150;28;20056;-62
2022/02/22 06:29:20;;;;;;;14.65;3.53;;;;;;;6.30;64.22;100459.31;10347298;28;20051;-62
2022/02/22 06:34:22;;;;;;;16.92;5.07;;;;;;;6.17;63.50;100455.72;10311131;28;20490;-61
2022/02/22 06:39:23;;;;;;;12.35;3.40;;;;;;;6.18;63.76;100484.72;10315173;28;20050;-61
2022/02/22 06:44:24;;;;;;;14.10;4.18;;;;;;;6.20;64.05;100489.91;10312896;28;20622;-61
2022/02/22 06:49:26;;;;;;;14.98;3.72;;;;;;;6.28;63.74;100506.16;10307799;28;20576;-61
2022/02/22 06:54:27;;;;;;;11.15;3.38;;;;;;;6.38;63.49;100506.50;10321764;28;20689;-62
2022/02/22 06:59:29;;;;;;;18.38;4.53;;;;;;;6.30;63.60;100512.19;10311198;28;20054;-64
2022/02/22 07:04:30;;;;;;;12.23;3.50;;;;;;;6.32;67.15;100512.97;10315433;28;20053;-64
2022/02/22 07:09:33;;;;;;;19.48;5.82;;;;;;;6.29;63.53;100518.47;10310714;28;20093;-62
2022/02/22 07:14:34;;;;;;;14.18;4.13;;;;;;;6.28;63.55;100529.97;10313729;28;20411;-63
2022/02/22 07:19:36;;;;;;;14.80;3.67;;;;;;;6.32;63.49;100547.34;10309203;28;20614;-63
2022/02/22 07:24:37;;;;;;;13.85;3.78;;;;;;;6.36;63.31;100558.59;10312105;28;20048;-62
2022/02/22 07:29:39;;;;;;;11.32;3.03;;;;;;;6.52;63.24;100558.56;10309841;28;20073;-63
2022/02/22 07:34:40;;;;;;;12.32;3.80;;;;;;;6.59;63.30;100573.13;10309554;28;20156;-61
2022/02/22 07:39:42;;;;;;;12.98;3.50;;;;;;;6.48;63.77;100575.53;10307083;28;20053;-61
2022/02/22 07:44:43;;;;;;;11.32;3.60;;;;;;;6.61;63.81;100587.13;10303920;28;20133;-63
2022/02/22 07:49:45;;;;;;;13.68;3.90;;;;;;;6.78;63.68;100583.47;10308960;28;20058;-62
2022/02/22 07:54:58;;;;;;;10.23;3.20;;;;;;;6.83;63.56;100607.88;10303683;28;20050;-61
2022/02/22 08:00:00;;;;;;;15.85;4.13;;;;;;;6.96;63.10;100615.06;10307833;28;20121;-61
2022/02/22 08:05:01;;;;;;;13.35;3.38;;;;;;;7.36;61.75;100610.88;10301259;28;20058;-61
2022/02/22 08:10:04;;;;;;;12.20;3.50;;;;;;;7.42;61.79;100610.50;10305391;28;20095;-63
2022/02/22 08:15:07;;;;;;;9.63;3.42;;;;;;;7.44;61.45;100616.53;10304546;28;20138;-61
2022/02/22 08:20:09;;;;;;;14.10;4.07;;;;;;;7.60;60.84;100619.09;10307604;28;20299;-62
2022/02/22 08:25:11;;;;;;;12.10;3.33;;;;;;;7.53;60.32;100644.25;10331535;28;20054;-62
2022/02/22 08:30:12;;;;;;;8.73;3.05;;;;;;;7.75;60.22;100627.03;10300485;28;20058;-60
2022/02/22 08:35:14;;;;;;;12.90;3.10;;;;;;;7.78;58.83;100626.84;10310435;28;20080;-61
2022/02/22 08:40:16;;;;;;;13.95;3.20;;;;;;;7.77;59.07;100615.38;10302744;28;20060;-61
2022/02/22 08:45:17;;;;;;;10.77;3.40;;;;;;;8.02;57.91;100631.56;10298630;28;20153;-60
2022/02/22 08:50:20;;;;;;;10.80;2.75;;;;;;;8.34;57.79;100650.69;10304207;28;20934;-61
2022/02/22 08:55:22;;;;;;;12.40;3.45;;;;;;;8.51;56.89;100646.09;10304457;28;20053;-60
2022/02/22 09:00:26;;;;;;;12.35;3.10;;;;;;;8.90;55.68;100653.22;10305958;28;21230;-61
2022/02/22 09:05:28;;;;;;;10.48;2.80;;;;;;;9.34;53.75;100637.88;10303325;28;20457;-61
2022/02/22 09:10:30;;;;;;;10.52;3.95;;;;;;;9.13;53.90;100640.22;10296821;28;20091;-62
2022/02/22 09:15:32;;;;;;;7.82;2.55;;;;;;;9.08;54.12;100658.25;10307284;28;20376;-61
2022/02/22 09:20:34;;;;;;;10.07;2.90;;;;;;;9.10;54.44;100659.84;10302036;28;20423;-63
2022/02/22 09:25:36;;;;;;;12.00;3.53;;;;;;;8.95;53.67;100660.91;10308065;28;20061;-61
2022/02/22 09:30:37;;;;;;;9.43;3.20;;;;;;;9.05;54.54;100651.34;10304471;28;20046;-61
2022/02/22 09:35:39;;;;;;;9.30;2.70;;;;;;;9.14;54.74;100642.78;10307020;28;20054;-62
2022/02/22 09:40:41;;;;;;;9.88;2.35;;;;;;;9.59;52.07;100617.56;10309191;28;20151;-62
2022/02/22 09:45:43;;;;;;;12.73;2.58;;;;;;;9.91;51.28;100639.22;10306736;28;20057;-62
2022/02/22 09:50:47;;;;;;;;;;;;;;;9.90;51.52;100638.34;10310991;28;20050;-61
2022/02/22 09:55:48;;;;;;;8.82;3.13;;;;;;;10.23;51.53;100634.22;10304462;28;19996;-61
2022/02/22 10:01:00;;;;;;;12.45;4.38;;;;;;;10.77;50.75;100637.41;10304213;28;20061;-63
2022/02/22 10:06:03;;;;;;;9.20;3.00;;;;;;;10.49;50.70;100634.13;10300302;28;20065;-63
2022/02/22 10:11:11;;;;;;;7.90;2.60;;;;;;;10.06;51.60;100619.47;10295590;28;20049;-64
2022/02/22 10:16:14;;;;;;;8.52;4.20;;;;;;;9.81;52.73;100625.72;10305266;28;20619;-64
2022/02/22 10:21:16;;;;;;;7.90;2.38;;;;;;;9.64;54.38;100620.75;10307567;28;20050;-63
2022/02/22 10:26:27;;;;;;;7.35;2.55;;;;;;;9.80;53.55;100605.38;10311006;28;20152;-63
2022/02/22 10:31:32;;;;;;;9.93;3.42;;;;;;;9.73;53.66;100593.53;10304280;28;20415;-63
2022/02/22 10:36:39;;;;;;;13.32;3.78;;;;;;;9.53;53.56;100597.56;10297760;28;20973;-63
2022/02/22 10:41:44;;;;;;;7.65;2.33;;;;;;;9.57;53.86;100583.13;10311794;28;20583;-63
2022/02/22 10:46:47;;;;;;;11.63;2.80;;;;;;;9.59;53.54;100575.88;10318012;28;20508;-63
2022/02/22 10:51:51;;;;;;;8.35;2.42;;;;;;;9.61;54.16;100583.75;10304311;28;20073;-62
2022/02/22 10:56:54;;;;;;;12.50;3.10;;;;;;;9.55;54.58;100572.59;10300554;28;20050;-62
2022/02/22 11:01:58;;;;;;;11.18;2.42;;;;;;;10.36;53.54;100578.31;10319509;28;20053;-61
2022/02/22 11:07:01;;;;;;;8.68;3.05;;;;;;;10.88;50.94;100549.53;10303993;28;20221;-63
2022/02/22 11:12:07;;;;;;;11.25;3.55;;;;;;;10.94;51.39;100574.88;10305894;28;20084;-62
2022/02/22 11:17:20;;;;;;;10.18;3.05;;;;;;;11.95;48.63;100566.03;10315297;28;20045;-63
2022/02/22 11:22:25;;;;;;;6.53;3.33;;;;;;;12.03;48.26;100565.41;10308348;28;20803;-62
2022/02/22 11:27:32;;;;;;;5.68;2.83;;;;;;;13.15;46.04;100559.63;10311953;28;20062;-62
2022/02/22 11:32:35;;;;;;;8.40;2.65;;;;;;;13.90;44.04;100549.53;10298231;28;20053;-63
2022/02/22 11:37:37;;;;;;;6.55;2.03;;;;;;;13.20;44.84;100558.25;10310517;28;20416;-63
2022/02/22 11:42:38;;;;;;;6.78;2.30;;;;;;;13.59;44.75;100552.28;10302333;28;20053;-63
2022/02/22 11:47:40;;;;;;;3.97;1.90;;;;;;;12.91;45.43;100568.81;10312671;28;20050;-64
2022/02/22 11:52:44;;;;;;;7.07;1.88;;;;;;;12.07;47.63;100558.88;10305559;28;20476;-63
2022/02/22 11:57:50;;;;;;;5.25;1.98;;;;;;;11.41;49.65;100569.44;10304386;28;20097;-64
2022/02/22 12:02:52;;;;;;;6.05;2.00;;;;;;;10.74;50.33;100585.22;10308206;28;20054;-64
2022/02/22 12:08:21;;;;;;;6.18;2.30;;;;;;;10.64;51.44;100589.53;10305948;28;20196;-63
2022/02/22 12:13:45;;;;;;;5.00;1.90;;;;;;;10.22;51.75;100560.69;10305657;28;20045;-64
2022/02/22 12:18:50;;;;;;;7.32;2.08;;;;;;;10.22;52.37;100542.06;10311934;28;20141;-63
2022/02/22 12:23:53;;;;;;;7.10;2.47;;;;;;;10.32;52.44;100517.44;10323256;28;20157;-63
2022/02/22 12:29:01;;;;;;;4.43;1.80;;;;;;;10.13;53.23;100504.66;10307407;28;20104;-66
2022/02/22 12:34:05;;;;;;;7.20;2.72;;;;;;;9.88;54.57;100501.16;10302555;28;20081;-63
2022/02/22 12:39:10;;;;;;;8.95;2.40;;;;;;;9.70;55.52;100506.84;10307944;28;20076;-64
2022/02/22 12:44:15;;;;;;;5.05;2.25;;;;;;;9.64;56.51;100517.09;10309983;28;20053;-63
2022/02/22 12:49:19;;;;;;;5.57;2.58;;;;;;;9.49;57.50;100516.41;10332876;28;21289;-61
2022/02/22 12:54:21;;;;;;;7.57;2.58;;;;;;;9.54;57.60;100523.06;10335952;28;20053;-63
2022/02/22 12:59:23;;;;;;;6.03;2.75;;;;;;;9.36;58.96;100496.00;10336959;28;20052;-61
2022/02/22 13:04:29;;;;;;;4.97;2.00;;;;;;;9.38;59.01;100493.22;10340246;28;20065;-67
2022/02/22 13:09:31;;;;;;;5.65;2.65;;;;;;;9.18;59.90;100492.00;10337349;28;20053;-64
2022/02/22 13:14:40;;;;;;;7.20;2.47;;;;;;;9.30;60.25;100492.94;10335247;28;20045;-64
2022/02/22 13:19:44;;;;;;;9.05;3.20;;;;;;;9.60;58.99;100475.75;10337593;28;20517;-62
2022/02/22 13:25:00;;;;;;;7.90;2.83;;;;;;;9.66;58.82;100475.28;10342077;28;21477;-61
2022/02/22 13:30:08;;;;;;;8.32;2.45;;;;;;;9.65;58.72;100481.56;10339345;28;20132;-61
2022/02/22 13:35:21;;;;;;;7.03;2.88;;;;;;;9.53;59.59;100485.97;10349278;28;20144;-61
2022/02/22 13:40:42;;;;;;;10.60;4.00;;;;;;;9.41;60.42;100482.38;10309659;28;20173;-61
2022/02/22 13:45:44;;;;;;;8.77;3.03;;;;;;;9.71;59.35;100468.69;10302469;28;20060;-62
2022/02/22 13:50:45;;;;;;;9.18;3.60;;;;;;;9.78;59.17;100471.72;10304702;28;20064;-62
2022/02/22 13:55:46;;;;;;;9.30;3.90;;;;;;;9.91;59.45;100422.00;10300987;28;20064;-61
2022/02/22 14:00:54;;;;;;;9.93;3.30;;;;;;;9.72;60.62;100437.63;10305922;28;20053;-61
2022/02/22 14:05:58;;;;;;;8.93;3.22;;;;;;;9.30;62.61;100423.88;10314628;28;20531;-61
2022/02/22 14:11:00;;;;;;;10.63;3.17;;;;;;;9.25;63.38;100418.03;10303370;28;20060;-61
2022/02/22 14:16:01;;;;;;;12.18;4.32;;;;;;;8.96;65.25;100397.06;10311721;28;20095;-61
2022/02/22 14:21:02;;;;;;;16.20;3.85;;;;;;;9.08;66.35;100421.91;10315116;28;20059;-64
2022/02/22 14:26:04;;;;;;;15.60;4.00;;;;;;;8.80;67.36;100418.56;10313957;28;20066;-63
2022/02/22 14:31:05;;;;;;;14.75;4.55;;;;;;;8.94;67.93;100414.94;10318839;28;20060;-63
2022/02/22 14:36:07;;;;;;;12.27;4.90;;;;;;;9.07;68.86;100388.34;10312466;28;20050;-61
2022/02/22 14:41:08;;;;;;;15.45;4.00;;;;;;;9.39;67.85;100393.97;10319273;28;20050;-62
2022/02/22 14:46:10;;;;;;;15.00;5.38;;;;;;;9.23;67.95;100404.03;10321033;28;20058;-62
2022/02/22 14:51:11;;;;;;;12.85;3.78;;;;;;;9.17;69.23;100411.50;10312857;28;20120;-65
2022/02/22 14:56:15;;;;;;;18.10;4.85;;;;;;;8.91;73.23;100400.06;10316851;28;20161;-60
2022/02/22 15:01:17;;;;;;;17.55;5.55;;;;;;;8.75;74.96;100396.78;10314206;28;20050;-63
2022/02/22 15:06:18;;;;;;;16.92;4.85;;;;;;;8.63;75.39;100382.59;10310216;28;20045;-65
2022/02/22 15:11:21;;;;;;;17.73;5.43;;;;;;;8.68;76.12;100383.13;10320435;28;20061;-64
2022/02/22 15:16:22;;;;;;;19.50;5.78;;;;;;;8.57;78.21;100367.09;10316605;28;20105;-62
2022/02/22 15:21:24;;;;;;;16.40;5.38;;;;;;;8.52;78.73;100387.81;10321843;28;20056;-63
2022/02/22 15:26:45;;;;;;;12.55;4.00;;;;;;;8.43;77.84;100379.47;10316720;28;20056;-63
2022/02/22 15:31:47;;;;;;;14.70;4.53;;;;;;;8.52;77.49;100382.50;10308379;28;20299;-64
2022/02/22 15:36:48;;;;;;;19.13;5.70;;;;;;;8.29;76.48;100355.75;10315671;28;20053;-62
2022/02/22 15:41:49;;;;;;;14.15;4.70;;;;;;;8.38;77.17;100375.47;10303613;28;20058;-63
2022/02/22 15:46:51;;;;;;;14.18;4.18;;;;;;;8.29;78.52;100372.50;10320861;28;20093;-63
2022/02/22 15:51:52;;;;;;;15.18;5.32;;;;;;;8.37;78.65;100377.25;10314727;28;20485;-62
2022/02/22 15:56:56;;;;;;;9.57;7.72;;;;;;;8.48;79.01;100369.44;10321298;28;20063;-63
2022/02/22 16:01:58;;;;;;;17.52;4.93;;;;;;;8.39;79.81;100356.81;10347499;28;20045;-63
2022/02/22 16:06:59;;;;;;;11.57;4.63;;;;;;;8.23;80.10;100348.22;10371054;28;20136;-63
2022/02/22 16:12:03;;;;;;;14.55;4.88;;;;;;;8.05;81.19;100342.38;10354674;28;20057;-63
2022/02/22 16:17:04;;;;;;;13.52;4.97;;;;;;;8.06;81.26;100339.63;10330187;28;20329;-61
2022/02/22 16:22:06;;;;;;;12.32;5.18;;;;;;;8.02;81.03;100316.91;10314048;28;20091;-62
2022/02/22 16:27:08;;;;;;;15.80;5.32;;;;;;;8.08;81.07;100332.41;10311935;28;20054;-61
2022/02/22 16:32:13;;;;;;;14.98;4.20;;;;;;;8.11;80.38;100337.47;10308343;28;20058;-63
2022/02/22 16:37:16;;;;;;;12.98;4.55;;;;;;;8.04;79.73;100320.28;10310607;28;20081;-63
2022/02/22 16:42:18;;;;;;;9.65;4.10;;;;;;;8.14;79.29;100317.88;10303411;28;20050;-61
2022/02/22 16:47:20;;;;;;;15.20;4.53;;;;;;;8.14;78.65;100337.28;10314266;28;20053;-61
2022/02/22 16:52:22;;;;;;;11.02;3.80;;;;;;;8.16;78.57;100315.13;10320644;28;20534;-61
2022/02/22 16:57:23;;;;;;;8.32;3.50;;;;;;;8.11;78.01;100304.84;10306635;28;20050;-63
2022/02/22 17:02:25;;;;;;;10.35;3.25;;;;;;;8.11;78.44;100295.06;10305550;28;20145;-61
2022/02/22 17:07:31;;;;;;;10.57;3.60;;;;;;;8.19;77.75;100313.09;10313768;28;20808;-60
2022/02/22 17:12:33;;;;;;;11.38;3.20;;;;;;;8.16;78.01;100323.06;10312172;28;20060;-62
2022/02/22 17:17:34;;;;;;;5.72;3.13;;;;;;;8.12;77.96;100307.38;10316862;28;20058;-61
2022/02/22 17:22:36;;;;;;;7.82;2.80;;;;;;;8.23;77.76;100324.34;10312075;28;20121;-61
2022/02/22 17:27:39;;;;;;;6.00;2.50;;;;;;;8.20;77.49;100308.66;10311092;28;20056;-63
2022/02/22 17:32:41;;;;;;;4.97;2.95;;;;;;;8.34;77.50;100332.38;10306606;28;20500;-63
2022/02/22 17:37:42;;;;;;;8.68;3.60;;;;;;;8.29;77.55;100308.00;10307442;28;20054;-62
2022/02/22 17:42:44;;;;;;;7.57;3.10;;;;;;;8.38;77.42;100328.56;10304904;28;20448;-62
2022/02/22 17:47:45;;;;;;;5.43;2.40;;;;;;;8.16;78.32;100293.91;10299089;28;20065;-62
2022/02/22 17:52:46;;;;;;;6.20;2.53;;;;;;;8.65;78.45;100331.09;10315415;28;20060;-61
2022/02/22 17:57:49;;;;;;;6.50;3.17;;;;;;;8.73;76.87;100332.38;10318759;28;20058;-63
2022/02/22 18:02:52;;;;;;;10.30;4.07;;;;;;;8.80;76.43;100328.31;10319980;28;20193;-65
2022/02/22 18:07:54;;;;;;;5.28;3.33;;;;;;;8.69;76.72;100304.34;10316830;28;20046;-64
2022/02/22 18:12:55;;;;;;;7.82;2.50;;;;;;;8.61;77.53;100300.44;10323469;28;20785;-61
2022/02/22 18:17:57;;;;;;;9.60;2.58;;;;;;;8.49;78.12;100294.19;10317669;28;20463;-62
2022/02/22 18:22:58;;;;;;;9.20;3.10;;;;;;;8.48;78.15;100276.59;10323326;28;20049;-62
2022/02/22 18:27:59;;;;;;;17.35;9.82;;;;;;;8.74;78.70;100291.63;10315697;28;20136;-60
2022/02/22 18:33:01;;;;;;;8.50;3.53;;;;;;;8.61;78.56;100287.16;10312007;28;20054;-62
2022/02/22 18:38:02;;;;;;;14.40;6.78;;;;;;;8.70;79.00;100290.97;10315391;28;20058;-62
2022/02/22 18:43:05;;;;;;;7.53;2.85;;;;;;;8.67;78.71;100300.00;10324415;28;20404;-61
2022/02/22 18:48:06;;;;;;;7.15;2.92;;;;;;;8.65;79.39;100291.31;10312066;28;20050;-61
2022/02/22 18:53:08;;;;;;;7.68;3.20;;;;;;;8.71;79.44;100297.97;10319158;28;20061;-63
2022/02/22 18:58:10;;;;;;;6.63;3.33;;;;;;;8.63;79.38;100273.78;10314672;28;20057;-63
2022/02/22 19:03:11;;;;;;;9.60;3.25;;;;;;;8.67;79.63;100264.66;10332598;28;20716;-62
2022/02/22 19:08:13;;;;;;;11.45;2.67;;;;;;;8.65;80.55;100282.50;10314465;28;20519;-63
2022/02/22 19:13:14;;;;;;;5.72;2.72;;;;;;;8.61;80.05;100259.78;10308632;28;20054;-64
2022/02/22 19:18:16;;;;;;;6.95;2.92;;;;;;;8.55;81.47;100249.63;10322691;28;20121;-63
2022/02/22 19:23:17;;;;;;;6.45;2.88;;;;;;;8.47;82.20;100237.75;10316313;28;20180;-62
2022/02/22 19:28:19;;;;;;;7.00;2.78;;;;;;;8.77;82.93;100265.69;10314711;28;20053;-62
2022/02/22 19:33:21;;;;;;;5.45;3.10;;;;;;;8.85;82.42;100268.63;10329669;28;20046;-63
2022/02/22 19:38:23;;;;;;;9.10;2.85;;;;;;;8.70;84.18;100274.22;10318122;28;20057;-62
2022/02/22 19:43:25;;;;;;;7.80;2.53;;;;;;;8.51;85.42;100274.66;10311975;28;20053;-64
2022/02/22 19:48:26;;;;;;;7.55;3.20;;;;;;;8.47;86.83;100282.84;10312323;28;20187;-63
2022/02/22 19:53:27;;;;;;;7.85;3.15;;;;;;;8.37;88.82;100276.47;10316984;28;20053;-62
2022/02/22 19:58:29;;;;;;;5.13;2.72;;;;;;;8.45;89.74;100292.75;10320321;28;20069;-62
2022/02/22 20:03:31;;;;;;;7.18;2.92;;;;;;;8.30;92.22;100280.50;10311061;28;20095;-62
2022/02/22 20:08:32;;;;;;;9.20;3.50;;;;;;;8.29;92.38;100284.13;10321440;28;20046;-62
2022/02/22 20:13:34;;;;;;;7.13;3.17;;;;;;;8.24;93.10;100283.59;10308992;28;20054;-62
2022/02/22 20:18:35;;;;;;;8.23;3.25;;;;;;;8.19;93.66;100272.47;10309273;28;20116;-62
2022/02/22 20:23:37;;;;;;;7.22;3.55;;;;;;;8.21;94.94;100289.13;10308309;28;20063;-62
2022/02/22 20:28:40;;;;;;;9.15;4.78;;;;;;;8.11;96.07;100278.31;10305628;28;20050;-62
2022/02/22 20:33:42;;;;;;;7.88;3.58;;;;;;;8.22;96.37;100282.88;10311513;28;20045;-60
2022/02/22 20:38:43;;;;;;;8.00;3.78;;;;;;;8.27;95.84;100278.94;10308903;28;20608;-61
2022/02/22 20:43:45;;;;;;;8.57;5.07;;;;;;;8.19;95.70;100269.81;10317934;28;20049;-62
2022/02/22 20:48:46;;;;;;;7.25;3.70;;;;;;;8.30;95.36;100291.13;10309556;28;20186;-61
2022/02/22 20:53:48;;;;;;;4.78;4.00;;;;;;;8.29;94.98;100281.47;10306377;28;20050;-61
2022/02/22 20:58:49;;;;;;;7.05;4.25;;;;;;;8.32;94.76;100265.34;10307559;28;20053;-63
2022/02/22 21:03:54;;;;;;;10.40;4.35;;;;;;;8.37;94.71;100273.81;10302300;28;20056;-62
2022/02/22 21:08:56;;;;;;;8.73;3.95;;;;;;;8.38;94.65;100286.13;10311721;28;20181;-62
2022/02/22 21:13:57;;;;;;;4.95;3.10;;;;;;;8.43;95.10;100289.28;10315131;28;20062;-63
2022/02/22 21:18:59;;;;;;;4.65;2.92;;;;;;;8.38;94.98;100274.69;10305007;28;20080;-61
2022/02/22 21:24:00;;;;;;;4.50;2.65;;;;;;;8.48;95.03;100292.50;10309165;28;20069;-62
2022/02/22 21:29:02;;;;;;;5.82;2.75;;;;;;;8.54;95.11;100293.91;10311293;28;20045;-62
2022/02/22 21:34:05;;;;;;;5.35;2.95;;;;;;;8.54;94.33;100287.72;10305721;28;20641;-60
2022/02/22 21:39:07;;;;;;;4.70;2.17;;;;;;;8.62;94.98;100302.13;10306925;28;20137;-61
2022/02/22 21:44:09;;;;;;;4.53;2.03;;;;;;;8.53;95.85;100283.34;10302160;28;20046;-62
2022/02/22 21:49:11;;;;;;;3.75;2.28;;;;;;;8.64;96.17;100307.34;10303124;28;20689;-64
2022/02/22 21:54:13;;;;;;;3.92;1.63;;;;;;;8.70;96.64;100295.44;10307457;28;20152;-62
2022/02/22 21:59:15;;;;;;;3.80;2.22;;;;;;;8.72;95.94;100312.09;10315293;28;20046;-64
2022/02/22 22:04:17;;;;;;;3.63;1.83;;;;;;;8.83;95.67;100320.97;10314536;28;20118;-64
2022/02/22 22:09:18;;;;;;;3.20;1.90;;;;;;;8.78;95.20;100320.47;10313712;28;20944;-64
2022/02/22 22:14:19;;;;;;;2.58;1.50;;;;;;;8.83;95.93;100349.34;10314147;28;20137;-64
2022/02/22 22:19:21;;;;;;;2.25;1.42;;;;;;;8.84;96.71;100404.97;10311688;28;20442;-62
2022/02/22 22:24:22;;;;;;;2.92;1.60;;;;;;;8.68;96.89;100433.53;10314000;28;20895;-62
2022/02/22 22:29:24;;;;;;;2.70;0.70;;;;;;;8.57;87.89;100436.09;10313900;28;20186;-65
2022/02/22 22:34:25;;;;;;;1.85;0.80;;;;;;;8.48;85.63;100462.31;10315089;28;20529;-63
2022/02/22 22:39:27;;;;;;;1.05;0.50;;;;;;;8.30;82.48;100466.16;10317307;28;20060;-65
2022/02/22 22:44:28;;;;;;;1.45;0.30;;;;;;;8.17;81.71;100452.91;10329013;28;20168;-65
2022/02/22 22:49:29;;;;;;;2.25;0.63;;;;;;;8.04;80.16;100460.81;10312791;28;20124;-63
2022/02/22 22:54:31;;;;;;;2.53;0.63;;;;;;;7.88;81.12;100473.38;10317358;28;20082;-63
2022/02/22 22:59:33;;;;;;;1.73;0.40;;;;;;;7.91;79.68;100475.81;10320610;28;20185;-63
2022/02/22 23:04:34;;;;;;;2.92;0.65;;;;;;;8.02;80.32;100483.94;10318476;28;20212;-63
2022/02/22 23:14:58;;;;;;;1.73;0.85;;;;;;;7.98;76.54;100503.63;10315641;28;20174;-63
2022/02/22 23:20:00;;;;;;;3.25;0.57;;;;;;;8.08;76.04;100523.28;10317335;28;20489;-63
2022/02/22 23:25:02;;;;;;;6.32;1.52;;;;;;;8.13;75.14;100523.00;10310430;28;20058;-63
2022/02/22 23:30:04;;;;;;;4.30;0.70;;;;;;;8.11;75.99;100532.84;10319346;28;20049;-63
2022/02/22 23:35:06;;;;;;;7.03;1.35;;;;;;;7.86;73.99;100555.63;10317472;28;20176;-63
2022/02/22 23:40:08;;;;;;;3.75;1.00;;;;;;;7.77;75.39;100557.06;10318111;28;20184;-64
2022/02/22 23:45:09;;;;;;;5.57;1.05;;;;;;;7.59;74.06;100548.50;10318765;28;20054;-63